createdAt,value
2024-02-08T00:00:47.148Z,36.2
2024-02-08T00:02:01.442Z,38.6
2024-02-08T00:03:15.736Z,37.3
2024-02-08T00:04:30.030Z,37.8
2024-02-08T00:05:44.324Z,39.9
2024-02-08T00:06:58.618Z,37.7
2024-02-08T00:08:12.912Z,38.1
2024-02-08T00:09:27.206Z,37.8
2024-02-08T00:10:41.500Z,45.2
2024-02-08T00:11:55.794Z,38.6
2024-02-08T00:13:09.104Z,37.8
2024-02-08T00:14:23.397Z,37.7
2024-02-08T00:15:37.691Z,37.5
2024-02-08T00:16:51.985Z,37.8
2024-02-08T00:18:06.279Z,38.3
2024-02-08T00:19:20.573Z,37.5
2024-02-08T00:20:34.867Z,42.5
2024-02-08T00:21:49.161Z,47.8
2024-02-08T00:23:03.455Z,37.8
2024-02-08T00:24:17.749Z,37.5
2024-02-08T00:25:32.043Z,38
2024-02-08T00:26:46.338Z,37.2
2024-02-08T00:28:00.631Z,55.9
2024-02-08T00:29:13.942Z,39.6
2024-02-08T00:30:28.236Z,36.8
2024-02-08T00:31:42.529Z,37
2024-02-08T00:32:56.823Z,49.7
2024-02-08T00:34:11.117Z,38.6
2024-02-08T00:35:25.411Z,37
2024-02-08T00:36:39.705Z,37.3
2024-02-08T00:37:53.999Z,37
2024-02-08T00:39:08.293Z,37.5
2024-02-08T00:40:22.588Z,43.8
2024-02-08T00:41:36.882Z,36.7
2024-02-08T00:42:51.176Z,38.8
2024-02-08T00:44:05.470Z,38.6
2024-02-08T00:45:18.780Z,38.5
2024-02-08T00:46:33.074Z,38.1
2024-02-08T00:47:47.368Z,38.5
2024-02-08T00:49:01.663Z,40.4
2024-02-08T00:50:15.957Z,36.5
2024-02-08T00:51:30.251Z,36.5
2024-02-08T00:52:44.545Z,42
2024-02-08T00:53:58.839Z,36.2
2024-02-08T00:55:13.133Z,36.5
2024-02-08T00:56:27.427Z,52.3
2024-02-08T00:57:41.721Z,37.2
2024-02-08T00:58:56.015Z,36.2
2024-02-08T01:00:10.309Z,36
2024-02-08T01:01:23.620Z,36.7
2024-02-08T01:02:37.914Z,37
2024-02-08T01:03:52.208Z,36
2024-02-08T01:05:06.502Z,38
2024-02-08T01:06:20.796Z,35.6
2024-02-08T01:07:35.090Z,36
2024-02-08T01:08:49.384Z,35.4
2024-02-08T01:10:03.678Z,35.6
2024-02-08T01:11:17.972Z,35.6
2024-02-08T01:12:32.267Z,36.8
2024-02-08T01:13:46.561Z,36.4
2024-02-08T01:15:00.855Z,41.4
2024-02-08T01:16:15.149Z,36.4
2024-02-08T01:17:28.459Z,36.7
2024-02-08T01:18:42.753Z,35.7
2024-02-08T01:19:57.047Z,35.4
2024-02-08T01:21:11.342Z,36
2024-02-08T01:22:25.636Z,35.6
2024-02-08T01:23:39.930Z,35.4
2024-02-08T01:24:54.224Z,35.7
2024-02-08T01:26:08.518Z,40.6
2024-02-08T01:27:22.812Z,35.4
2024-02-08T01:28:37.106Z,35.2
2024-02-08T01:29:51.400Z,34.4
2024-02-08T01:31:05.695Z,34.6
2024-02-08T01:32:19.989Z,34.8
2024-02-08T01:33:33.299Z,35.4
2024-02-08T01:34:47.593Z,34.9
2024-02-08T01:36:01.887Z,35.2
2024-02-08T01:37:16.181Z,34.9
2024-02-08T01:38:30.475Z,38.3
2024-02-08T01:39:44.769Z,35.6
2024-02-08T01:40:59.063Z,35.1
2024-02-08T01:42:13.358Z,38
2024-02-08T01:43:27.652Z,39.7
2024-02-08T01:44:41.946Z,34.9
2024-02-08T01:45:56.240Z,34.9
2024-02-08T01:47:10.534Z,34.4
2024-02-08T01:48:24.828Z,35.1
2024-02-08T01:49:39.122Z,35.7
2024-02-08T01:50:52.432Z,35.6
2024-02-08T01:52:06.726Z,35.1
2024-02-08T01:53:21.021Z,35.4
2024-02-08T01:54:35.315Z,48.5
2024-02-08T01:55:49.609Z,39.9
2024-02-08T01:57:03.903Z,36.7
2024-02-08T01:58:18.197Z,35.2
2024-02-08T01:59:32.491Z,37.5
2024-02-08T02:00:46.785Z,37.5
2024-02-08T02:02:01.079Z,46.2
2024-02-08T02:03:15.373Z,35.4
2024-02-08T02:04:29.667Z,35.4
2024-02-08T02:05:43.962Z,35.1
2024-02-08T02:06:57.272Z,35.1
2024-02-08T02:08:11.566Z,34.6
2024-02-08T02:09:25.860Z,35.1
2024-02-08T02:10:40.154Z,35.7
2024-02-08T02:11:54.448Z,35.6
2024-02-08T02:13:08.742Z,35.2
2024-02-08T02:14:23.037Z,35.4
2024-02-08T02:15:37.331Z,36.7
2024-02-08T02:16:51.625Z,49.7
2024-02-08T02:18:05.919Z,34.8
2024-02-08T02:19:20.213Z,35.6
2024-02-08T02:20:34.507Z,37.7
2024-02-08T02:21:48.801Z,35.4
2024-02-08T02:23:02.111Z,42.7
2024-02-08T02:24:16.405Z,35.7
2024-02-08T02:25:30.699Z,36.2
2024-02-08T02:26:44.993Z,55.5
2024-02-08T02:27:59.287Z,36.5
2024-02-08T02:29:13.582Z,37.2
2024-02-08T02:30:27.876Z,35.9
2024-02-08T02:31:42.170Z,35.2
2024-02-08T02:32:56.464Z,36.4
2024-02-08T02:34:10.758Z,37.2
2024-02-08T02:35:25.052Z,34.9
2024-02-08T02:36:39.346Z,35.7
2024-02-08T02:37:53.640Z,36.2
2024-02-08T02:39:06.951Z,36
2024-02-08T02:40:21.245Z,38.3
2024-02-08T02:41:35.539Z,39.1
2024-02-08T02:42:49.833Z,38.9
2024-02-08T02:44:04.127Z,36.8
2024-02-08T02:45:18.421Z,37.7
2024-02-08T02:46:32.715Z,37.8
2024-02-08T02:47:47.009Z,45.6
2024-02-08T02:49:01.303Z,37.7
2024-02-08T02:50:15.597Z,36.8
2024-02-08T02:51:29.891Z,35.9
2024-02-08T02:52:44.186Z,37.3
2024-02-08T02:53:58.480Z,43.6
2024-02-08T02:55:11.790Z,36
2024-02-08T02:56:26.084Z,35.2
2024-02-08T02:57:40.378Z,36.2
2024-02-08T02:58:54.672Z,39.9
2024-02-08T03:00:08.966Z,35.1
2024-02-08T03:01:22.282Z,37.2
2024-02-08T03:02:36.576Z,36.5
2024-02-08T03:03:50.870Z,36.7
2024-02-08T03:05:05.164Z,37.2
2024-02-08T03:06:19.458Z,39.7
2024-02-08T03:07:33.752Z,46.5
2024-02-08T03:08:48.046Z,37.8
2024-02-08T03:10:02.340Z,40.2
2024-02-08T03:11:16.635Z,37.3
2024-02-08T03:12:30.929Z,46.8
2024-02-08T03:13:45.223Z,44.6
2024-02-08T03:14:59.517Z,38
2024-02-08T03:16:13.811Z,43.6
2024-02-08T03:17:27.121Z,37.7
2024-02-08T03:18:41.415Z,37
2024-02-08T03:19:55.709Z,38.8
2024-02-08T03:21:10.003Z,37.5
2024-02-08T03:22:24.298Z,40.7
2024-02-08T03:23:38.592Z,46.2
2024-02-08T03:24:52.886Z,38.3
2024-02-08T03:26:07.180Z,42.7
2024-02-08T03:27:21.474Z,46.8
2024-02-08T03:28:35.768Z,47.8
2024-02-08T03:29:50.062Z,38.8
2024-02-08T03:31:04.356Z,47.8
2024-02-08T03:32:18.650Z,39.3
2024-02-08T03:33:31.961Z,37.7
2024-02-08T03:34:46.255Z,38.5
2024-02-08T03:36:00.549Z,42.7
2024-02-08T03:37:14.843Z,38.3
2024-02-08T03:38:29.137Z,38.8
2024-02-08T03:39:43.431Z,39.1
2024-02-08T03:40:57.725Z,48
2024-02-08T03:42:12.019Z,41.5
2024-02-08T03:43:26.313Z,43.6
2024-02-08T03:44:40.607Z,42.3
2024-02-08T03:45:54.901Z,41.7
2024-02-08T03:47:09.196Z,41.7
2024-02-08T03:48:23.490Z,37.8
2024-02-08T03:49:36.800Z,37.5
2024-02-08T03:50:51.094Z,36.8
2024-02-08T03:52:05.388Z,44.1
2024-02-08T03:53:19.682Z,37.2
2024-02-08T03:54:33.976Z,35.7
2024-02-08T03:55:48.270Z,37.3
2024-02-08T03:57:02.564Z,40.9
2024-02-08T03:58:16.858Z,37.5
2024-02-08T03:59:31.153Z,45.6
2024-02-08T04:00:45.447Z,41.7
2024-02-08T04:01:59.741Z,41.4
2024-02-08T04:03:14.035Z,37.7
2024-02-08T04:04:28.329Z,38.3
2024-02-08T04:05:41.639Z,47.6
2024-02-08T04:06:55.933Z,38
2024-02-08T04:08:10.227Z,41.4
2024-02-08T04:09:24.521Z,42
2024-02-08T04:10:38.816Z,41
2024-02-08T04:11:53.110Z,45.6
2024-02-08T04:13:07.404Z,44.3
2024-02-08T04:14:21.698Z,44.3
2024-02-08T04:15:35.992Z,39.9
2024-02-08T04:16:50.286Z,40.1
2024-02-08T04:18:04.580Z,45.4
2024-02-08T04:19:18.874Z,39.3
2024-02-08T04:20:33.168Z,53.3
2024-02-08T04:21:46.479Z,43.9
2024-02-08T04:23:00.773Z,44.1
2024-02-08T04:24:15.067Z,43.1
2024-02-08T04:25:29.361Z,46.8
2024-02-08T04:26:43.655Z,54.6
2024-02-08T04:27:57.949Z,45.1
2024-02-08T04:29:12.244Z,37.3
2024-02-08T04:30:26.538Z,43.5
2024-02-08T04:31:40.832Z,51.2
2024-02-08T04:32:55.126Z,45.9
2024-02-08T04:34:09.420Z,44.3
2024-02-08T04:35:23.714Z,45.9
2024-02-08T04:36:38.008Z,50.7
2024-02-08T04:37:51.319Z,45.4
2024-02-08T04:39:05.613Z,47.2
2024-02-08T04:40:19.907Z,48.3
2024-02-08T04:41:34.201Z,47.5
2024-02-08T04:42:48.495Z,40.9
2024-02-08T04:44:02.789Z,46
2024-02-08T04:45:17.084Z,51.7
2024-02-08T04:46:31.378Z,46.5
2024-02-08T04:47:45.672Z,50.7
2024-02-08T04:48:59.966Z,44.7
2024-02-08T04:50:14.260Z,45.6
2024-02-08T04:51:28.554Z,47.8
2024-02-08T04:52:42.848Z,53.9
2024-02-08T04:53:56.158Z,45.4
2024-02-08T04:55:10.453Z,45.9
2024-02-08T04:56:24.747Z,51
2024-02-08T04:57:39.041Z,50.1
2024-02-08T04:58:53.335Z,55.1
2024-02-08T05:00:07.629Z,48.1
2024-02-08T05:01:21.924Z,42.2
2024-02-08T05:02:36.218Z,41.8
2024-02-08T05:03:50.512Z,47
2024-02-08T05:05:04.806Z,55.5
2024-02-08T05:06:19.100Z,49.4
2024-02-08T05:07:33.395Z,50.5
2024-02-08T05:08:47.689Z,44.6
2024-02-08T05:10:00.999Z,50.7
2024-02-08T05:11:15.293Z,47
2024-02-08T05:12:29.587Z,46
2024-02-08T05:13:43.882Z,49.7
2024-02-08T05:14:58.177Z,45.2
2024-02-08T05:16:12.471Z,49.3
2024-02-08T05:17:26.765Z,43.5
2024-02-08T05:18:41.060Z,49.3
2024-02-08T05:19:55.354Z,47.8
2024-02-08T05:21:09.648Z,51.5
2024-02-08T05:22:23.942Z,54.4
2024-02-08T05:23:38.236Z,50.7
2024-02-08T05:24:52.530Z,50.9
2024-02-08T05:26:05.840Z,51.2
2024-02-08T05:27:20.134Z,48.8
2024-02-08T05:28:34.429Z,49.3
2024-02-08T05:29:48.723Z,49.7
2024-02-08T05:31:03.017Z,53.1
2024-02-08T05:32:17.311Z,49.7
2024-02-08T05:33:31.605Z,52.2
2024-02-08T05:34:45.899Z,50.4
2024-02-08T05:36:00.193Z,50.7
2024-02-08T05:37:14.487Z,56.8
2024-02-08T05:38:28.782Z,53.1
2024-02-08T05:39:43.077Z,53.4
2024-02-08T05:40:57.371Z,52
2024-02-08T05:42:10.681Z,54.9
2024-02-08T05:43:24.975Z,52
2024-02-08T05:44:39.270Z,53.9
2024-02-08T05:45:53.564Z,54.6
2024-02-08T05:47:07.858Z,52.3
2024-02-08T05:48:22.152Z,51.8
2024-02-08T05:49:36.446Z,54.3
2024-02-08T05:50:50.741Z,53.6
2024-02-08T05:52:05.035Z,45.9
2024-02-08T05:53:19.329Z,47.8
2024-02-08T05:54:33.623Z,45.9
2024-02-08T05:55:47.917Z,48.5
2024-02-08T05:57:02.211Z,53.4
2024-02-08T05:58:15.521Z,50.1
2024-02-08T05:59:29.816Z,49.6
2024-02-08T06:00:44.110Z,53.6
2024-02-08T06:01:58.404Z,54.9
2024-02-08T06:03:12.698Z,49.6
2024-02-08T06:04:26.992Z,54.7
2024-02-08T06:05:41.287Z,49.9
2024-02-08T06:06:55.581Z,46.5
2024-02-08T06:08:09.875Z,47.8
2024-02-08T06:09:24.169Z,50.5
2024-02-08T06:10:38.464Z,48.8
2024-02-08T06:11:52.704Z,49.1
2024-02-08T06:13:06.998Z,49.9
2024-02-08T06:14:20.266Z,51.7
2024-02-08T06:15:34.506Z,56.3
2024-02-08T06:16:48.800Z,45.2
2024-02-08T06:18:03.051Z,47.2
2024-02-08T06:19:17.292Z,48.5
2024-02-08T06:20:31.532Z,48.8
2024-02-08T06:21:45.772Z,48.8
2024-02-08T06:23:00.012Z,45.2
2024-02-08T06:24:14.252Z,53.4
2024-02-08T06:25:28.493Z,49.9
2024-02-08T06:26:42.733Z,51
2024-02-08T06:27:56.973Z,47.5
2024-02-08T06:29:11.213Z,48.9
2024-02-08T06:30:24.469Z,50.9
2024-02-08T06:31:38.709Z,54.6
2024-02-08T06:32:52.950Z,47.6
2024-02-08T06:34:07.190Z,48.1
2024-02-08T06:35:21.430Z,48.1
2024-02-08T06:36:35.670Z,47
2024-02-08T06:37:49.910Z,47.5
2024-02-08T06:39:04.150Z,46.4
2024-02-08T06:40:18.391Z,51.7
2024-02-08T06:41:32.631Z,44.9
2024-02-08T06:42:46.871Z,49.9
2024-02-08T06:44:01.111Z,50.4
2024-02-08T06:45:15.351Z,48.3
2024-02-08T06:46:28.608Z,47.8
2024-02-08T06:47:42.848Z,43.5
2024-02-08T06:48:57.088Z,47
2024-02-08T06:50:11.328Z,44.4
2024-02-08T06:51:25.569Z,44.6
2024-02-08T06:52:39.810Z,43.8
2024-02-08T06:53:54.050Z,41.5
2024-02-08T06:55:08.290Z,43
2024-02-08T06:56:22.530Z,45.4
2024-02-08T06:57:36.770Z,43.9
2024-02-08T06:58:51.011Z,46.4
2024-02-08T07:00:05.251Z,43.6
2024-02-08T07:01:19.491Z,45.9
2024-02-08T07:02:32.747Z,43.6
2024-02-08T07:03:46.987Z,40.2
2024-02-08T07:05:01.228Z,45.4
2024-02-08T07:06:15.468Z,46.2
2024-02-08T07:07:29.708Z,51.7
2024-02-08T07:08:43.948Z,47.3
2024-02-08T07:09:57.209Z,49.6
2024-02-08T07:11:11.449Z,45.6
2024-02-08T07:12:25.690Z,44.7
2024-02-08T07:13:39.930Z,50.7
2024-02-08T07:14:54.170Z,47.3
2024-02-08T07:16:08.410Z,46.7
2024-02-08T07:17:22.650Z,45.1
2024-02-08T07:18:36.891Z,46.4
2024-02-08T07:19:51.131Z,49.1
2024-02-08T07:21:05.371Z,50.2
2024-02-08T07:22:19.611Z,48
2024-02-08T07:23:33.851Z,45.1
2024-02-08T07:24:48.091Z,44.4
2024-02-08T07:26:01.348Z,47.3
2024-02-08T07:27:15.588Z,50.2
2024-02-08T07:28:29.828Z,46.2
2024-02-08T07:29:44.069Z,48.1
2024-02-08T07:30:58.309Z,44.9
2024-02-08T07:32:12.549Z,46.5
2024-02-08T07:33:26.789Z,42.5
2024-02-08T07:34:41.030Z,46.7
2024-02-08T07:35:55.271Z,41.7
2024-02-08T07:37:09.511Z,42
2024-02-08T07:38:23.751Z,42.8
2024-02-08T07:39:37.991Z,43.5
2024-02-08T07:40:52.231Z,43.5
2024-02-08T07:42:05.488Z,45.9
2024-02-08T07:43:19.728Z,42.8
2024-02-08T07:44:33.968Z,40.9
2024-02-08T07:45:48.208Z,41.7
2024-02-08T07:47:02.448Z,41
2024-02-08T07:48:16.689Z,42.8
2024-02-08T07:49:30.929Z,43.5
2024-02-08T07:50:45.170Z,41.8
2024-02-08T07:51:59.410Z,43.9
2024-02-08T07:53:13.650Z,42.8
2024-02-08T07:54:27.891Z,42.5
2024-02-08T07:55:42.131Z,42.3
2024-02-08T07:56:56.371Z,42.7
2024-02-08T07:58:09.627Z,49.1
2024-02-08T07:59:23.867Z,44.6
2024-02-08T08:00:38.108Z,42.5
2024-02-08T08:01:52.348Z,41.5
2024-02-08T08:03:06.588Z,41
2024-02-08T08:04:20.828Z,40.1
2024-02-08T08:05:35.068Z,40.4
2024-02-08T08:06:49.308Z,43.3
2024-02-08T08:08:03.548Z,41.5
2024-02-08T08:09:17.789Z,48.1
2024-02-08T08:10:32.029Z,42.7
2024-02-08T08:11:46.269Z,43.6
2024-02-08T08:13:00.509Z,43.3
2024-02-08T08:14:13.765Z,43.8
2024-02-08T08:15:28.006Z,45.4
2024-02-08T08:16:42.246Z,45.4
2024-02-08T08:17:56.486Z,46.7
2024-02-08T08:19:10.726Z,44.9
2024-02-08T08:20:24.966Z,47.5
2024-02-08T08:21:39.206Z,42.7
2024-02-08T08:22:53.446Z,41.2
2024-02-08T08:24:07.686Z,53.9
2024-02-08T08:25:21.926Z,40.9
2024-02-08T08:26:36.166Z,41.2
2024-02-08T08:27:50.406Z,42.7
2024-02-08T08:29:04.646Z,41.5
2024-02-08T08:30:17.902Z,45.1
2024-02-08T08:31:32.142Z,44.7
2024-02-08T08:32:46.382Z,42.5
2024-02-08T08:34:00.622Z,42.2
2024-02-08T08:35:14.862Z,41.8
2024-02-08T08:36:29.102Z,43
2024-02-08T08:37:43.342Z,44.3
2024-02-08T08:38:57.582Z,41.7
2024-02-08T08:40:11.822Z,41.2
2024-02-08T08:41:26.062Z,41.5
2024-02-08T08:42:40.302Z,42
2024-02-08T08:43:54.542Z,41.7
2024-02-08T08:45:08.782Z,41.8
2024-02-08T08:46:22.038Z,40.2
2024-02-08T08:47:36.278Z,40.6
2024-02-08T08:48:50.518Z,40.6
2024-02-08T08:50:04.758Z,41.2
2024-02-08T08:51:18.998Z,41.4
2024-02-08T08:52:33.238Z,42
2024-02-08T08:53:47.478Z,40.6
2024-02-08T08:55:01.718Z,42.3
2024-02-08T08:56:15.958Z,41.7
2024-02-08T08:57:30.198Z,41.4
2024-02-08T08:58:44.438Z,42.5
2024-02-08T08:59:58.678Z,42.2
2024-02-08T09:01:12.918Z,41.2
2024-02-08T09:02:26.174Z,41.2
2024-02-08T09:03:40.415Z,41.7
2024-02-08T09:04:54.654Z,42
2024-02-08T09:06:08.894Z,41
2024-02-08T09:07:23.134Z,41.4
2024-02-08T09:08:37.374Z,40.4
2024-02-08T09:09:51.614Z,40.6
2024-02-08T09:11:05.854Z,41.2
2024-02-08T09:12:20.094Z,39.6
2024-02-08T09:13:34.335Z,39.9
2024-02-08T09:14:48.575Z,40.7
2024-02-08T09:16:02.815Z,48.8
2024-02-08T09:17:17.055Z,40.1
2024-02-08T09:18:30.311Z,52.5
2024-02-08T09:19:44.551Z,40.6
2024-02-08T09:20:58.792Z,41.2
2024-02-08T09:22:13.032Z,45.1
2024-02-08T09:23:27.272Z,40.2
2024-02-08T09:24:41.512Z,41.5
2024-02-08T09:25:55.752Z,42.3
2024-02-08T09:27:09.992Z,40.6
2024-02-08T09:28:24.232Z,40.4
2024-02-08T09:29:38.472Z,39.4
2024-02-08T09:30:52.712Z,40.1
2024-02-08T09:32:06.952Z,40.2
2024-02-08T09:33:21.192Z,40.7
2024-02-08T09:34:34.448Z,38.9
2024-02-08T09:35:48.688Z,40.6
2024-02-08T09:37:02.928Z,38.8
2024-02-08T09:38:17.168Z,39.6
2024-02-08T09:39:31.408Z,41.5
2024-02-08T09:40:45.648Z,40.9
2024-02-08T09:41:59.888Z,39.9
2024-02-08T09:43:14.128Z,39.3
2024-02-08T09:44:28.368Z,38.5
2024-02-08T09:45:42.608Z,38.8
2024-02-08T09:46:56.848Z,38.6
2024-02-08T09:48:11.087Z,38.3
2024-02-08T09:49:25.327Z,38.9
2024-02-08T09:50:38.583Z,37.8
2024-02-08T09:51:52.823Z,46.8
2024-02-08T09:53:07.063Z,44.9
2024-02-08T09:54:21.303Z,39.3
2024-02-08T09:55:35.543Z,39.7
2024-02-08T09:56:49.783Z,42.2
2024-02-08T09:58:04.023Z,40.6
2024-02-08T09:59:18.262Z,38
2024-02-08T10:00:32.502Z,40.1
2024-02-08T10:01:46.742Z,58.1
2024-02-08T10:03:00.982Z,39.9
2024-02-08T10:04:15.221Z,38.8
2024-02-08T10:05:29.461Z,39.9
2024-02-08T10:06:42.717Z,42.8
2024-02-08T10:07:56.957Z,40.2
2024-02-08T10:09:11.197Z,41
2024-02-08T10:10:25.437Z,38.6
2024-02-08T10:11:39.677Z,40.1
2024-02-08T10:12:53.917Z,39.7
2024-02-08T10:14:08.157Z,39.1
2024-02-08T10:15:22.397Z,37.8
2024-02-08T10:16:36.638Z,38.1
2024-02-08T10:17:50.878Z,39.3
2024-02-08T10:19:05.118Z,40.1
2024-02-08T10:20:19.358Z,39.9
2024-02-08T10:21:33.597Z,40.9
2024-02-08T10:22:46.853Z,42
2024-02-08T10:24:01.093Z,53.4
2024-02-08T10:25:15.333Z,40.6
2024-02-08T10:26:29.573Z,40.1
2024-02-08T10:27:43.812Z,39.4
2024-02-08T10:28:58.052Z,41.4
2024-02-08T10:30:12.292Z,41.8
2024-02-08T10:31:26.532Z,41
2024-02-08T10:32:40.772Z,40.2
2024-02-08T10:33:55.012Z,40.2
2024-02-08T10:35:09.252Z,40.7
2024-02-08T10:36:23.492Z,40.7
2024-02-08T10:37:37.731Z,41.2
2024-02-08T10:38:50.987Z,42.5
2024-02-08T10:40:05.228Z,41
2024-02-08T10:41:19.468Z,41.7
2024-02-08T10:42:33.708Z,40.2
2024-02-08T10:43:47.948Z,42.3
2024-02-08T10:45:02.188Z,42.5
2024-02-08T10:46:16.428Z,41.2
2024-02-08T10:47:30.668Z,40.9
2024-02-08T10:48:44.908Z,43
2024-02-08T10:49:59.149Z,41.5
2024-02-08T10:51:13.389Z,43.3
2024-02-08T10:52:27.629Z,42.2
2024-02-08T10:53:41.869Z,43.9
2024-02-08T10:54:55.125Z,42
2024-02-08T10:56:09.365Z,42.8
2024-02-08T10:57:23.605Z,42.2
2024-02-08T10:58:37.845Z,42.5
2024-02-08T10:59:52.084Z,42.2
2024-02-08T11:01:06.324Z,46.8
2024-02-08T11:02:20.564Z,55.5
2024-02-08T11:03:34.804Z,47.5
2024-02-08T11:04:49.043Z,52.6
2024-02-08T11:06:03.283Z,43
2024-02-08T11:07:17.523Z,43
2024-02-08T11:08:31.762Z,43.1
2024-02-08T11:09:46.002Z,42.8
2024-02-08T11:10:59.257Z,42.5
2024-02-08T11:12:13.497Z,42.8
2024-02-08T11:13:27.736Z,43.5
2024-02-08T11:14:41.976Z,42.7
2024-02-08T11:15:56.215Z,43.1
2024-02-08T11:17:10.454Z,44.9
2024-02-08T11:18:23.715Z,44.1
2024-02-08T11:19:37.954Z,43.5
2024-02-08T11:20:52.194Z,44.1
2024-02-08T11:22:06.433Z,44.1
2024-02-08T11:23:20.673Z,43.8
2024-02-08T11:24:34.913Z,43.9
2024-02-08T11:25:49.152Z,43.5
2024-02-08T11:27:03.392Z,43.5
2024-02-08T11:28:17.631Z,43
2024-02-08T11:29:31.871Z,43.3
2024-02-08T11:30:46.110Z,43.8
2024-02-08T11:32:00.350Z,44.4
2024-02-08T11:33:14.589Z,42.5
2024-02-08T11:34:27.845Z,43
2024-02-08T11:35:42.084Z,43.8
2024-02-08T11:36:56.324Z,43.3
2024-02-08T11:38:10.563Z,43.1
2024-02-08T11:39:24.803Z,43.6
2024-02-08T11:40:39.042Z,43
2024-02-08T11:41:53.281Z,42.7
2024-02-08T11:43:07.520Z,43.8
2024-02-08T11:44:21.760Z,43.1
2024-02-08T11:45:36.000Z,43.1
2024-02-08T11:46:50.239Z,43.3
2024-02-08T11:48:04.479Z,43
2024-02-08T11:49:18.718Z,43.3
2024-02-08T11:50:31.973Z,43.9
2024-02-08T11:51:46.213Z,43
2024-02-08T11:53:00.452Z,43.8
2024-02-08T11:54:14.691Z,43.5
2024-02-08T11:55:28.931Z,44.3
2024-02-08T11:56:43.171Z,43.8
2024-02-08T11:57:57.410Z,43.6
2024-02-08T11:59:11.650Z,43.9
2024-02-08T12:00:25.889Z,43.9
2024-02-08T12:01:40.128Z,42.5
2024-02-08T12:02:54.368Z,43.6
2024-02-08T12:04:08.607Z,43.5
2024-02-08T12:05:22.847Z,43.8
2024-02-08T12:06:36.102Z,42.3
2024-02-08T12:07:50.342Z,48.6
2024-02-08T12:09:04.581Z,43.1
2024-02-08T12:10:18.820Z,40.9
2024-02-08T12:11:33.060Z,42
2024-02-08T12:12:47.299Z,42.2
2024-02-08T12:14:01.539Z,42.5
2024-02-08T12:15:15.778Z,43
2024-02-08T12:16:30.018Z,43.1
2024-02-08T12:17:44.257Z,42.8
2024-02-08T12:18:58.497Z,43
2024-02-08T12:20:12.736Z,42.5
2024-02-08T12:21:26.975Z,41.8
2024-02-08T12:22:40.231Z,42.5
2024-02-08T12:23:54.470Z,42.5
2024-02-08T12:25:08.710Z,41.8
2024-02-08T12:26:22.949Z,41.5
2024-02-08T12:27:37.189Z,43.1
2024-02-08T12:28:51.429Z,42.5
2024-02-08T12:30:05.668Z,42.7
2024-02-08T12:31:19.907Z,43.1
2024-02-08T12:32:34.147Z,43.6
2024-02-08T12:33:48.386Z,43
2024-02-08T12:35:02.625Z,42.5
2024-02-08T12:36:16.865Z,42.7
2024-02-08T12:37:31.104Z,43.8
2024-02-08T12:38:44.360Z,43.3
2024-02-08T12:39:58.599Z,43.3
2024-02-08T12:41:12.838Z,43
2024-02-08T12:42:27.078Z,42
2024-02-08T12:43:41.317Z,43
2024-02-08T12:44:55.557Z,42.3
2024-02-08T12:46:09.796Z,42.7
2024-02-08T12:47:24.036Z,42.7
2024-02-08T12:48:38.276Z,42.3
2024-02-08T12:49:52.516Z,42.8
2024-02-08T12:51:06.755Z,42.5
2024-02-08T12:52:20.994Z,42.7
2024-02-08T12:53:35.234Z,41.7
2024-02-08T12:54:48.489Z,43.1
2024-02-08T12:56:02.728Z,42.8
2024-02-08T12:57:16.968Z,43.3
2024-02-08T12:58:31.207Z,48
2024-02-08T12:59:45.447Z,42.3
2024-02-08T13:00:59.686Z,46.4
2024-02-08T13:02:13.924Z,42.7
2024-02-08T13:03:28.165Z,42.7
2024-02-08T13:04:42.404Z,42.8
2024-02-08T13:05:56.644Z,42.8
2024-02-08T13:07:10.883Z,43.3
2024-02-08T13:08:25.122Z,42.3
2024-02-08T13:09:39.362Z,42.5
2024-02-08T13:10:52.618Z,44.1
2024-02-08T13:12:06.857Z,43.6
2024-02-08T13:13:21.096Z,42.8
2024-02-08T13:14:35.336Z,43
2024-02-08T13:15:49.575Z,42.8
2024-02-08T13:17:03.815Z,44.3
2024-02-08T13:18:18.054Z,42
2024-02-08T13:19:32.293Z,42.7
2024-02-08T13:20:46.533Z,49.1
2024-02-08T13:22:00.773Z,43.1
2024-02-08T13:23:15.013Z,43.1
2024-02-08T13:24:29.253Z,43.3
2024-02-08T13:25:43.493Z,44.4
2024-02-08T13:26:56.749Z,44.4
2024-02-08T13:28:10.989Z,42.3
2024-02-08T13:29:25.228Z,42.2
2024-02-08T13:30:39.467Z,43.1
2024-02-08T13:31:53.707Z,42.5
2024-02-08T13:33:07.947Z,44.1
2024-02-08T13:34:22.186Z,42.8
2024-02-08T13:35:36.427Z,43.3
2024-02-08T13:36:50.666Z,43.5
2024-02-08T13:38:04.906Z,48
2024-02-08T13:39:19.146Z,43.3
2024-02-08T13:40:33.386Z,43.6
2024-02-08T13:41:47.626Z,42.8
2024-02-08T13:43:00.881Z,43.3
2024-02-08T13:44:15.120Z,42
2024-02-08T13:45:29.360Z,42.8
2024-02-08T13:46:43.600Z,42.8
2024-02-08T13:47:57.839Z,43.3
2024-02-08T13:49:12.079Z,43.3
2024-02-08T13:50:26.318Z,41.7
2024-02-08T13:51:40.558Z,43.3
2024-02-08T13:52:54.797Z,43.6
2024-02-08T13:54:09.037Z,42.8
2024-02-08T13:55:23.277Z,43.5
2024-02-08T13:56:37.517Z,43.3
2024-02-08T13:57:51.757Z,42.5
2024-02-08T13:59:05.013Z,42.7
2024-02-08T14:00:19.252Z,43
2024-02-08T14:01:33.492Z,57.8
2024-02-08T14:02:47.731Z,42.8
2024-02-08T14:04:01.971Z,42.8
2024-02-08T14:05:16.211Z,44.1
2024-02-08T14:06:30.450Z,42.8
2024-02-08T14:07:44.689Z,57.5
2024-02-08T14:08:58.929Z,43.9
2024-02-08T14:10:13.169Z,46.2
2024-02-08T14:11:27.408Z,46
2024-02-08T14:12:41.648Z,46.2
2024-02-08T14:13:55.889Z,44.9
2024-02-08T14:15:09.145Z,44.7
2024-02-08T14:16:23.385Z,45.4
2024-02-08T14:17:37.625Z,43.8
2024-02-08T14:18:51.865Z,45.4
2024-02-08T14:20:06.104Z,45.1
2024-02-08T14:21:20.344Z,48.3
2024-02-08T14:22:34.584Z,46.5
2024-02-08T14:23:48.824Z,48.1
2024-02-08T14:25:03.064Z,46.7
2024-02-08T14:26:17.304Z,46.7
2024-02-08T14:27:31.544Z,45.4
2024-02-08T14:28:45.784Z,52
2024-02-08T14:30:00.024Z,48.1
2024-02-08T14:31:13.280Z,53
2024-02-08T14:32:27.520Z,44.4
2024-02-08T14:33:41.759Z,45.1
2024-02-08T14:34:55.999Z,45.2
2024-02-08T14:36:10.240Z,47.3
2024-02-08T14:37:24.480Z,48
2024-02-08T14:38:38.720Z,58.1
2024-02-08T14:39:52.960Z,50.1
2024-02-08T14:41:07.200Z,48.5
2024-02-08T14:42:21.440Z,48.3
2024-02-08T14:43:35.680Z,52.6
2024-02-08T14:44:49.919Z,46.8
2024-02-08T14:46:04.160Z,48.1
2024-02-08T14:47:18.400Z,49.4
2024-02-08T14:48:31.656Z,56.7
2024-02-08T14:49:45.897Z,52.8
2024-02-08T14:51:00.137Z,49.7
2024-02-08T14:52:14.377Z,53.6
2024-02-08T14:53:28.616Z,51.5
2024-02-08T14:54:42.856Z,51.7
2024-02-08T14:55:57.096Z,51
2024-02-08T14:57:11.337Z,51.7
2024-02-08T14:58:25.577Z,47.8
2024-02-08T14:59:39.817Z,51.4
2024-02-08T15:00:54.056Z,55.7
2024-02-08T15:02:08.296Z,48.6
2024-02-08T15:03:22.536Z,50.4
2024-02-08T15:04:35.792Z,49.3
2024-02-08T15:05:50.032Z,48.9
2024-02-08T15:07:04.271Z,51.2
2024-02-08T15:08:18.511Z,51.2
2024-02-08T15:09:32.751Z,50.7
2024-02-08T15:10:46.991Z,55.9
2024-02-08T15:12:01.230Z,53.6
2024-02-08T15:13:15.470Z,49.7
2024-02-08T15:14:29.710Z,50.5
2024-02-08T15:15:43.950Z,50.9
2024-02-08T15:16:58.189Z,51.2
2024-02-08T15:18:12.429Z,51.7
2024-02-08T15:19:26.669Z,51.4
2024-02-08T15:20:40.909Z,53.8
2024-02-08T15:21:54.164Z,54.7
2024-02-08T15:23:08.404Z,55.1
2024-02-08T15:24:22.644Z,53.4
2024-02-08T15:25:36.884Z,52.8
2024-02-08T15:26:50.145Z,53.8
2024-02-08T15:28:04.385Z,53.4
2024-02-08T15:29:18.625Z,54.7
2024-02-08T15:30:32.865Z,52.5
2024-02-08T15:31:47.105Z,52.8
2024-02-08T15:33:01.344Z,52.2
2024-02-08T15:34:15.584Z,51.7
2024-02-08T15:35:29.824Z,54.1
2024-02-08T15:36:44.063Z,49.9
2024-02-08T15:37:58.303Z,53.4
2024-02-08T15:39:12.543Z,55.4
2024-02-08T15:40:26.783Z,52.3
2024-02-08T15:41:41.023Z,50.4
2024-02-08T15:42:54.279Z,51.8
2024-02-08T15:44:08.518Z,50.4
2024-02-08T15:45:22.758Z,51.2
2024-02-08T15:46:36.998Z,51.7
2024-02-08T15:47:51.238Z,51.2
2024-02-08T15:49:05.478Z,51.8
2024-02-08T15:50:19.718Z,55.2
2024-02-08T15:51:33.958Z,50.5
2024-02-08T15:52:48.198Z,51.2
2024-02-08T15:54:02.438Z,54.1
2024-02-08T15:55:16.677Z,58.1
2024-02-08T15:56:30.917Z,58.3
2024-02-08T15:57:45.157Z,49.6
2024-02-08T15:58:58.413Z,51.4
2024-02-08T16:00:12.653Z,55.2
2024-02-08T16:01:26.892Z,53.1
2024-02-08T16:02:41.133Z,53.6
2024-02-08T16:03:55.372Z,58.3
2024-02-08T16:05:09.612Z,47.8
2024-02-08T16:06:23.852Z,47
2024-02-08T16:07:38.093Z,55.7
2024-02-08T16:08:52.333Z,49.1
2024-02-08T16:10:06.572Z,48.8
2024-02-08T16:11:20.812Z,46.7
2024-02-08T16:12:35.052Z,43.8
2024-02-08T16:13:49.292Z,52.2
2024-02-08T16:15:02.548Z,52.8
2024-02-08T16:16:16.788Z,48.3
2024-02-08T16:17:31.028Z,51.8
2024-02-08T16:18:45.268Z,50.4
2024-02-08T16:19:59.507Z,49.3
2024-02-08T16:21:13.747Z,47.3
2024-02-08T16:22:27.987Z,46.4
2024-02-08T16:23:42.227Z,48.9
2024-02-08T16:24:56.467Z,54.4
2024-02-08T16:26:10.761Z,55.1
2024-02-08T16:27:25.001Z,51.7
2024-02-08T16:28:39.241Z,52.6
2024-02-08T16:29:53.535Z,55.1
2024-02-08T16:31:06.845Z,51.7
2024-02-08T16:32:21.139Z,55.9
2024-02-08T16:33:35.433Z,63.1